createdAt,value
2018-07-22T00:01:48.018Z,60.06
2018-07-22T00:04:18.802Z,61.10
2018-07-22T00:06:49.736Z,60.25
2018-07-22T00:09:20.454Z,61.08
2018-07-22T00:11:51.203Z,59.97
2018-07-22T00:14:21.989Z,60.00
2018-07-22T00:16:52.661Z,60.59
2018-07-22T00:19:23.165Z,61.12
2018-07-22T00:21:53.874Z,61.00
2018-07-22T00:24:24.509Z,62.79
2018-07-22T00:26:55.348Z,63.22
2018-07-22T00:29:26.052Z,62.04
2018-07-22T00:31:56.928Z,61.09
2018-07-22T00:34:27.473Z,61.47
2018-07-22T00:36:58.176Z,60.85
2018-07-22T00:39:28.869Z,61.66
2018-07-22T00:41:59.508Z,60.79
2018-07-22T00:44:29.957Z,61.33
2018-07-22T00:47:00.663Z,60.67
2018-07-22T00:49:31.337Z,60.64
2018-07-22T00:52:02.229Z,61.71
2018-07-22T00:54:32.852Z,61.90
2018-07-22T00:57:03.783Z,60.61
2018-07-22T00:59:35.355Z,60.80
2018-07-22T01:02:06.121Z,60.03
2018-07-22T01:04:36.811Z,59.08
2018-07-22T01:07:07.697Z,60.26
2018-07-22T01:09:38.473Z,59.43
2018-07-22T01:12:09.245Z,59.92
2018-07-22T01:14:39.944Z,60.13
2018-07-22T01:17:10.873Z,61.64
2018-07-22T01:19:41.460Z,60.99
2018-07-22T01:22:12.333Z,60.94
2018-07-22T01:24:42.999Z,61.34
2018-07-22T01:27:13.661Z,61.09
2018-07-22T01:29:44.351Z,60.47
2018-07-22T01:32:15.167Z,60.50
2018-07-22T01:34:46.185Z,61.74
2018-07-22T01:37:17.652Z,62.76
2018-07-22T01:39:48.316Z,62.45
2018-07-22T01:42:18.892Z,62.69
2018-07-22T01:44:49.631Z,62.48
2018-07-22T01:47:20.732Z,61.79
2018-07-22T01:49:51.300Z,62.73
2018-07-22T01:52:22.018Z,63.07
2018-07-22T01:54:52.541Z,62.49
2018-07-22T01:57:23.274Z,62.04
2018-07-22T01:59:53.981Z,62.90
2018-07-22T02:02:24.925Z,63.54
2018-07-22T02:04:55.647Z,64.84
2018-07-22T02:07:26.417Z,64.64
2018-07-22T02:09:56.517Z,63.34
2018-07-22T02:12:27.208Z,61.98
2018-07-22T02:14:58.609Z,61.98
2018-07-22T02:17:29.390Z,62.75
2018-07-22T02:19:59.997Z,62.56
2018-07-22T02:22:30.643Z,62.36
2018-07-22T02:25:01.403Z,62.65
2018-07-22T02:27:32.196Z,63.01
2018-07-22T02:30:03.034Z,64.38
2018-07-22T02:32:33.791Z,64.81
2018-07-22T02:35:04.534Z,64.86
2018-07-22T02:37:36.137Z,64.14
2018-07-22T02:40:06.801Z,63.45
2018-07-22T02:42:37.462Z,63.95
2018-07-22T02:45:08.009Z,64.86
2018-07-22T02:47:38.769Z,65.01
2018-07-22T02:50:09.336Z,64.17
2018-07-22T02:52:40.172Z,63.46
2018-07-22T02:55:10.764Z,63.76
2018-07-22T02:57:41.841Z,64.20
2018-07-22T03:00:12.539Z,63.71
2018-07-22T03:02:43.378Z,63.84
2018-07-22T03:05:14.073Z,64.36
2018-07-22T03:07:45.204Z,63.71
2018-07-22T03:10:15.995Z,64.71
2018-07-22T03:12:46.883Z,65.13
2018-07-22T03:15:17.713Z,64.46
2018-07-22T03:17:48.896Z,64.05
2018-07-22T03:20:19.646Z,65.26
2018-07-22T03:22:50.388Z,66.57
2018-07-22T03:25:20.621Z,66.35
2018-07-22T03:27:51.324Z,66.90
2018-07-22T03:30:21.984Z,66.41
2018-07-22T03:32:52.877Z,65.40
2018-07-22T03:35:23.528Z,64.71
2018-07-22T03:37:54.262Z,64.51
2018-07-22T03:40:24.896Z,64.35
2018-07-22T03:42:55.689Z,63.94
2018-07-22T03:45:26.337Z,63.34
2018-07-22T03:47:57.109Z,64.03
2018-07-22T03:50:28.796Z,63.21
2018-07-22T03:52:59.760Z,63.17
2018-07-22T03:55:31.908Z,63.71
2018-07-22T03:58:02.537Z,64.33
2018-07-22T04:00:33.242Z,64.67
2018-07-22T04:03:04.162Z,64.00
2018-07-22T04:05:34.840Z,63.90
2018-07-22T04:08:05.783Z,63.77
2018-07-22T04:10:36.406Z,64.51
2018-07-22T04:13:07.293Z,64.10
2018-07-22T04:15:38.049Z,63.47
2018-07-22T04:18:08.811Z,62.81
2018-07-22T04:20:39.484Z,61.50
2018-07-22T04:23:11.518Z,62.50
2018-07-22T04:25:42.005Z,62.07
2018-07-22T04:28:12.244Z,63.24
2018-07-22T04:30:42.836Z,62.72
2018-07-22T04:33:13.717Z,63.22
2018-07-22T04:35:44.496Z,63.70
2018-07-22T04:38:15.216Z,64.66
2018-07-22T04:40:45.710Z,64.79
2018-07-22T04:43:16.348Z,65.56
2018-07-22T04:45:47.030Z,65.72
2018-07-22T04:48:17.905Z,64.90
2018-07-22T04:50:48.517Z,65.25
2018-07-22T04:53:19.500Z,65.80
2018-07-22T04:55:50.120Z,64.60
2018-07-22T04:58:20.846Z,62.87
2018-07-22T05:00:51.496Z,62.10
2018-07-22T05:03:22.234Z,61.86
2018-07-22T05:05:53.014Z,61.13
2018-07-22T05:08:23.728Z,60.54
2018-07-22T05:10:54.209Z,60.65
2018-07-22T05:13:24.829Z,59.41
2018-07-22T05:15:55.475Z,57.75
2018-07-22T05:18:26.341Z,56.23
2018-07-22T05:20:56.996Z,54.29
2018-07-22T05:23:27.640Z,54.30
2018-07-22T05:25:58.317Z,54.08
2018-07-22T05:28:29.318Z,51.84
2018-07-22T05:30:59.873Z,50.86
2018-07-22T05:33:30.513Z,51.67
2018-07-22T05:36:01.159Z,50.93
2018-07-22T05:38:31.567Z,49.73
2018-07-22T05:41:02.213Z,48.01
2018-07-22T05:43:33.024Z,48.59
2018-07-22T05:46:04.509Z,48.62
2018-07-22T05:48:35.541Z,48.26
2018-07-22T05:51:06.924Z,48.87
2018-07-22T05:53:37.920Z,48.25
2018-07-22T05:56:08.493Z,46.09
2018-07-22T05:58:39.241Z,46.70
2018-07-22T06:01:09.860Z,47.18
2018-07-22T06:03:40.620Z,45.12
2018-07-22T06:06:11.352Z,43.48
2018-07-22T06:08:42.265Z,42.08
2018-07-22T06:11:12.849Z,43.49
2018-07-22T06:13:43.538Z,41.82
2018-07-22T06:16:14.269Z,40.90
2018-07-22T06:18:45.308Z,40.54
2018-07-22T06:21:15.984Z,40.73
2018-07-22T06:23:46.607Z,39.80
2018-07-22T06:26:17.566Z,39.66
2018-07-22T06:28:48.545Z,39.85
2018-07-22T06:31:19.161Z,38.65
2018-07-22T06:33:49.913Z,38.75
2018-07-22T06:36:20.044Z,40.19
2018-07-22T06:38:50.926Z,40.91
2018-07-22T06:41:21.665Z,41.61
2018-07-22T06:43:52.696Z,40.06
2018-07-22T06:46:23.267Z,39.15
2018-07-22T06:48:53.932Z,39.68
2018-07-22T06:51:24.745Z,38.47
2018-07-22T06:53:55.393Z,35.67
2018-07-22T06:56:25.973Z,37.02
2018-07-22T06:58:57.341Z,36.99
2018-07-22T07:01:27.933Z,36.38
2018-07-22T07:03:58.905Z,36.06
2018-07-22T07:06:29.789Z,35.71
2018-07-22T07:09:00.845Z,37.23
2018-07-22T07:11:31.542Z,34.77
2018-07-22T07:14:02.433Z,33.72
2018-07-22T07:16:33.000Z,34.64
2018-07-22T07:19:03.801Z,34.44
2018-07-22T07:21:34.421Z,32.48
2018-07-22T07:24:05.041Z,34.07
2018-07-22T07:26:35.738Z,34.30
2018-07-22T07:29:06.312Z,31.79
2018-07-22T07:31:37.204Z,30.70
2018-07-22T07:34:08.588Z,32.49
2018-07-22T07:36:39.247Z,32.37
2018-07-22T07:39:12.867Z,32.72
2018-07-22T07:41:43.466Z,32.89
2018-07-22T07:44:14.229Z,33.19
2018-07-22T07:46:44.941Z,31.65
2018-07-22T07:49:15.823Z,30.18
2018-07-22T07:51:47.433Z,30.32
2018-07-22T07:54:18.369Z,30.79
2018-07-22T07:56:49.051Z,27.67
2018-07-22T07:59:20.105Z,29.07
2018-07-22T08:01:50.752Z,29.58
2018-07-22T08:04:21.685Z,29.75
2018-07-22T08:06:52.584Z,27.03
2018-07-22T08:09:23.872Z,28.52
2018-07-22T08:11:55.072Z,28.06
2018-07-22T08:14:26.718Z,29.81
2018-07-22T08:16:56.941Z,26.77
2018-07-22T08:19:27.643Z,28.70
2018-07-22T08:21:58.328Z,27.77
2018-07-22T08:24:29.166Z,28.44
2018-07-22T08:26:59.942Z,28.36
2018-07-22T08:29:31.628Z,28.79
2018-07-22T08:32:03.157Z,26.87
2018-07-22T08:34:33.718Z,27.53
2018-07-22T08:37:04.352Z,28.98
2018-07-22T08:39:35.043Z,30.38
2018-07-22T08:42:05.714Z,28.97
2018-07-22T08:44:36.502Z,29.90
2018-07-22T08:47:07.239Z,28.62
2018-07-22T08:49:38.100Z,28.39
2018-07-22T08:52:09.155Z,28.41
2018-07-22T08:54:39.926Z,27.05
2018-07-22T08:57:10.557Z,24.02
2018-07-22T08:59:41.313Z,23.48
2018-07-22T09:02:11.967Z,23.45
2018-07-22T09:04:42.770Z,22.68
2018-07-22T09:07:13.503Z,23.29
2018-07-22T09:09:44.457Z,22.39
2018-07-22T09:12:15.053Z,22.93
2018-07-22T09:14:45.989Z,23.30
2018-07-22T09:17:16.754Z,25.06
2018-07-22T09:19:47.598Z,24.37
2018-07-22T09:22:18.278Z,21.53
2018-07-22T09:24:50.012Z,22.26
2018-07-22T09:27:20.432Z,22.64
2018-07-22T09:29:51.295Z,21.38
2018-07-22T09:32:21.949Z,23.14
2018-07-22T09:34:52.757Z,21.16
2018-07-22T09:37:23.487Z,23.14
2018-07-22T09:39:54.314Z,22.43
2018-07-22T09:42:24.928Z,21.03
2018-07-22T09:44:55.386Z,21.65
2018-07-22T09:47:26.122Z,21.37
2018-07-22T09:49:57.053Z,18.83
2018-07-22T09:52:27.876Z,20.75
2018-07-22T09:54:58.520Z,18.07
2018-07-22T09:57:29.093Z,18.17
2018-07-22T09:59:59.861Z,19.11
2018-07-22T10:02:30.511Z,19.08
2018-07-22T10:05:02.115Z,18.84
2018-07-22T10:07:32.909Z,20.49
2018-07-22T10:10:03.822Z,19.64
2018-07-22T10:12:35.509Z,21.88
2018-07-22T10:15:06.308Z,20.42
2018-07-22T10:17:38.783Z,21.48
2018-07-22T10:20:09.629Z,19.66
2018-07-22T10:22:40.210Z,22.16
2018-07-22T10:25:11.302Z,21.09
2018-07-22T10:27:42.282Z,20.26
2018-07-22T10:30:13.191Z,20.32
2018-07-22T10:32:43.801Z,20.42
2018-07-22T10:35:14.677Z,19.40
2018-07-22T10:37:45.220Z,20.28
2018-07-22T10:40:16.418Z,19.06
2018-07-22T10:42:47.239Z,17.47
2018-07-22T10:45:18.182Z,19.96
2018-07-22T10:47:48.880Z,21.81
2018-07-22T10:50:19.864Z,21.46
2018-07-22T10:52:50.441Z,23.96
2018-07-22T10:55:21.257Z,22.85
2018-07-22T10:57:51.888Z,22.06
2018-07-22T11:00:22.997Z,22.31
2018-07-22T11:02:53.624Z,23.20
2018-07-22T11:05:24.325Z,21.18
2018-07-22T11:07:54.992Z,23.64
2018-07-22T11:10:25.868Z,22.29
2018-07-22T11:12:56.874Z,23.85
2018-07-22T11:15:27.693Z,21.84
2018-07-22T11:17:58.333Z,21.66
2018-07-22T11:20:29.101Z,21.28
2018-07-22T11:22:59.713Z,21.44
2018-07-22T11:25:30.460Z,24.79
2018-07-22T11:28:00.973Z,23.65
2018-07-22T11:30:31.638Z,23.10
2018-07-22T11:33:02.253Z,23.60
2018-07-22T11:35:33.350Z,22.33
2018-07-22T11:38:03.905Z,24.50
2018-07-22T11:40:34.645Z,23.01
2018-07-22T11:43:05.268Z,22.84
2018-07-22T11:45:36.019Z,23.04
2018-07-22T11:48:06.613Z,23.84
2018-07-22T11:50:37.606Z,23.37
2018-07-22T11:53:08.282Z,23.68
2018-07-22T11:55:38.928Z,23.68
2018-07-22T11:58:09.584Z,22.76
2018-07-22T12:00:40.437Z,23.23
2018-07-22T12:03:11.106Z,24.18
2018-07-22T12:05:41.927Z,23.42
2018-07-22T12:08:12.592Z,23.64
2018-07-22T12:10:43.490Z,24.13
2018-07-22T12:13:14.269Z,23.14
2018-07-22T12:15:45.030Z,22.89
2018-07-22T12:18:22.482Z,24.09
2018-07-22T12:20:53.260Z,23.84
2018-07-22T12:23:23.876Z,24.64
2018-07-22T12:25:54.604Z,24.93
2018-07-22T12:28:25.225Z,22.05
2018-07-22T12:30:55.928Z,22.52
2018-07-22T12:33:26.649Z,20.76
2018-07-22T12:35:57.421Z,21.42
2018-07-22T12:38:28.121Z,20.01
2018-07-22T12:40:58.529Z,20.74
2018-07-22T12:43:29.366Z,19.93
2018-07-22T12:46:00.417Z,21.00
2018-07-22T12:48:30.957Z,21.73
2018-07-22T12:51:01.745Z,21.92
2018-07-22T12:53:32.437Z,21.07
2018-07-22T12:56:02.572Z,22.63
2018-07-22T12:58:33.381Z,23.20
2018-07-22T13:01:04.077Z,20.42
2018-07-22T13:03:35.115Z,20.68
2018-07-22T13:06:05.736Z,22.00
2018-07-22T13:08:36.318Z,22.38
2018-07-22T13:11:06.449Z,21.07
2018-07-22T13:13:37.353Z,21.44
2018-07-22T13:16:08.274Z,20.47
2018-07-22T13:18:38.974Z,20.81
2018-07-22T13:21:09.701Z,19.40
2018-07-22T13:23:40.388Z,20.42
2018-07-22T13:26:11.149Z,22.06
2018-07-22T13:28:41.976Z,20.49
2018-07-22T13:31:12.628Z,19.81
2018-07-22T13:33:43.300Z,19.84
2018-07-22T13:36:13.984Z,21.32
2018-07-22T13:38:44.522Z,20.78
2018-07-22T13:41:15.148Z,19.89
2018-07-22T13:43:45.977Z,20.07
2018-07-22T13:46:16.785Z,21.30
2018-07-22T13:48:47.518Z,21.58
2018-07-22T13:51:18.073Z,20.01
2018-07-22T13:53:48.472Z,21.50
2018-07-22T13:56:19.254Z,19.80
2018-07-22T13:58:50.022Z,19.37
2018-07-22T14:01:20.840Z,19.26
2018-07-22T14:03:51.714Z,20.26
2018-07-22T14:06:22.278Z,22.86
2018-07-22T14:08:53.061Z,22.22
2018-07-22T14:11:23.862Z,22.20
2018-07-22T14:13:54.853Z,21.20
2018-07-22T14:16:25.576Z,21.85
2018-07-22T14:18:56.332Z,21.98
2018-07-22T14:21:26.943Z,21.58
2018-07-22T14:23:57.891Z,23.21
2018-07-22T14:26:28.561Z,22.88
2018-07-22T14:28:59.341Z,22.67
2018-07-22T14:31:29.926Z,22.75
2018-07-22T14:34:00.805Z,22.35
2018-07-22T14:36:31.509Z,21.71
2018-07-22T14:39:02.461Z,23.40
2018-07-22T14:41:33.130Z,24.83
2018-07-22T14:44:03.933Z,25.33
2018-07-22T14:46:34.454Z,25.02
2018-07-22T14:49:05.331Z,23.14
2018-07-22T14:51:35.913Z,23.69
2018-07-22T14:54:07.222Z,24.16
2018-07-22T14:56:37.983Z,24.91
2018-07-22T14:59:08.705Z,25.14
2018-07-22T15:01:39.208Z,26.12
2018-07-22T15:04:10.349Z,26.24
2018-07-22T15:06:41.053Z,26.59
2018-07-22T15:09:11.832Z,26.87
2018-07-22T15:11:42.496Z,27.89
2018-07-22T15:14:13.185Z,26.89
2018-07-22T15:16:43.858Z,27.00
2018-07-22T15:19:14.573Z,27.58
2018-07-22T15:21:45.257Z,27.65
2018-07-22T15:24:16.021Z,27.91
2018-07-22T15:26:46.672Z,27.80
2018-07-22T15:29:17.486Z,28.35
2018-07-22T15:31:48.095Z,27.91
2018-07-22T15:34:18.827Z,29.23
2018-07-22T15:36:49.451Z,28.88
2018-07-22T15:39:20.289Z,29.65
2018-07-22T15:41:50.948Z,28.13
2018-07-22T15:44:21.736Z,30.02
2018-07-22T15:46:52.336Z,30.85
2018-07-22T15:49:23.202Z,31.36
2018-07-22T15:51:53.866Z,31.66
2018-07-22T15:54:24.653Z,32.00
2018-07-22T15:56:55.268Z,32.76
2018-07-22T15:59:25.880Z,32.69
2018-07-22T16:01:56.200Z,32.20
2018-07-22T16:04:27.073Z,32.93
2018-07-22T16:06:57.799Z,32.20
2018-07-22T16:09:28.460Z,31.04
2018-07-22T16:11:59.054Z,30.87
2018-07-22T16:14:29.909Z,32.82
2018-07-22T16:17:00.617Z,31.75
2018-07-22T16:19:31.581Z,31.05
2018-07-22T16:22:02.245Z,31.33
2018-07-22T16:24:33.072Z,31.01
2018-07-22T16:27:03.918Z,31.49
2018-07-22T16:29:34.799Z,32.52
2018-07-22T16:32:05.482Z,31.14
2018-07-22T16:34:36.279Z,32.58
2018-07-22T16:37:06.937Z,32.44
2018-07-22T16:39:37.945Z,32.48
2018-07-22T16:42:08.663Z,33.71
2018-07-22T16:44:39.513Z,32.96
2018-07-22T16:47:10.113Z,34.25
2018-07-22T16:49:40.916Z,30.59
2018-07-22T16:52:11.532Z,32.44
2018-07-22T16:54:42.429Z,32.96
2018-07-22T16:57:13.119Z,33.44
2018-07-22T16:59:44.049Z,32.36
2018-07-22T17:02:14.686Z,34.70
2018-07-22T17:04:45.634Z,37.01
2018-07-22T17:07:16.199Z,39.76
2018-07-22T17:09:46.889Z,40.61
2018-07-22T17:12:17.468Z,41.15
2018-07-22T17:14:48.153Z,40.40
2018-07-22T17:17:18.801Z,41.48
2018-07-22T17:19:49.623Z,41.29
2018-07-22T17:22:20.256Z,40.73
2018-07-22T17:24:51.041Z,39.52
2018-07-22T17:27:21.493Z,39.67
2018-07-22T17:29:52.288Z,39.81
2018-07-22T17:32:23.025Z,40.59
2018-07-22T17:34:54.079Z,41.50
2018-07-22T17:37:24.746Z,41.58
2018-07-22T17:39:59.568Z,42.42
2018-07-22T17:42:32.317Z,42.69
2018-07-22T17:45:03.280Z,43.80
2018-07-22T17:47:33.888Z,44.04
2018-07-22T17:50:04.773Z,43.74
2018-07-22T17:52:35.411Z,43.87
2018-07-22T17:55:06.188Z,43.21
2018-07-22T17:57:36.927Z,42.84
2018-07-22T18:00:08.004Z,43.03
2018-07-22T18:02:40.687Z,43.14
2018-07-22T18:05:11.509Z,44.09
2018-07-22T18:07:42.157Z,44.89
2018-07-22T18:10:12.813Z,46.56
2018-07-22T18:12:43.380Z,45.97
2018-07-22T18:15:14.104Z,45.74
2018-07-22T18:17:44.764Z,46.01
2018-07-22T18:20:15.557Z,45.70
2018-07-22T18:22:46.259Z,45.75
2018-07-22T18:25:16.988Z,46.27
2018-07-22T18:27:47.561Z,46.85
2018-07-22T18:30:18.481Z,46.89
2018-07-22T18:32:49.173Z,47.23
2018-07-22T18:35:20.041Z,47.91
2018-07-22T18:37:50.589Z,48.99
2018-07-22T18:40:21.449Z,49.60
2018-07-22T18:42:51.861Z,49.24
2018-07-22T18:45:22.784Z,49.84
2018-07-22T18:47:53.792Z,50.03
2018-07-22T18:50:24.629Z,50.06
2018-07-22T18:52:55.142Z,50.49
2018-07-22T18:55:26.260Z,49.92
2018-07-22T18:57:56.553Z,51.20
2018-07-22T19:00:26.933Z,51.74
2018-07-22T19:02:57.189Z,51.85
2018-07-22T19:05:27.663Z,50.74
2018-07-22T19:07:57.941Z,50.90
2018-07-22T19:10:28.245Z,50.98
2018-07-22T19:12:58.479Z,51.03
2018-07-22T19:15:28.736Z,50.29
2018-07-22T19:17:59.081Z,49.97
2018-07-22T19:20:29.475Z,49.81
2018-07-22T19:23:00.265Z,50.05
2018-07-22T19:25:30.580Z,49.26
2018-07-22T19:28:00.832Z,50.12
2018-07-22T19:30:31.139Z,49.77
2018-07-22T19:33:01.682Z,50.18
2018-07-22T19:35:32.034Z,50.62
2018-07-22T19:38:02.392Z,51.08
2018-07-22T19:40:32.621Z,50.98
2018-07-22T19:43:02.865Z,50.44
2018-07-22T19:45:33.536Z,50.89
2018-07-22T19:48:03.872Z,50.48
2018-07-22T19:50:34.589Z,50.41
2018-07-22T19:53:04.845Z,50.55
2018-07-22T19:55:35.140Z,50.08
2018-07-22T19:58:05.633Z,50.35
2018-07-22T20:00:36.558Z,49.86
2018-07-22T20:03:07.390Z,50.36
2018-07-22T20:05:38.050Z,50.12
2018-07-22T20:08:08.357Z,50.05
2018-07-22T20:10:38.669Z,49.33
2018-07-22T20:13:08.956Z,49.85
2018-07-22T20:15:39.922Z,49.08
2018-07-22T20:18:10.609Z,48.55
2018-07-22T20:20:41.489Z,47.60
2018-07-22T20:23:11.810Z,48.27
2018-07-22T20:25:42.111Z,47.38
2018-07-22T20:28:12.689Z,47.32
2018-07-22T20:30:42.533Z,48.09
2018-07-22T20:33:13.344Z,49.07
2018-07-22T20:35:57.755Z,49.39
2018-07-22T20:38:28.549Z,48.87
2018-07-22T20:40:59.233Z,49.17
2018-07-22T20:43:30.965Z,49.36
2018-07-22T20:46:01.246Z,49.12
2018-07-22T20:48:32.168Z,48.85
2018-07-22T20:51:02.905Z,48.58
2018-07-22T20:53:33.645Z,49.59
2018-07-22T20:56:04.280Z,48.90
2018-07-22T20:58:34.429Z,48.60
2018-07-22T21:01:05.106Z,48.52
2018-07-22T21:03:35.500Z,48.18
2018-07-22T21:06:06.062Z,47.74
2018-07-22T21:08:36.830Z,47.50
2018-07-22T21:11:07.539Z,47.25
2018-07-22T21:13:38.210Z,46.67
2018-07-22T21:16:08.741Z,46.87
2018-07-22T21:18:39.472Z,47.59
2018-07-22T21:21:10.078Z,47.45
2018-07-22T21:23:40.881Z,46.29
2018-07-22T21:26:11.596Z,45.86
2018-07-22T21:28:42.357Z,47.07
2018-07-22T21:31:12.601Z,46.38
2018-07-22T21:33:43.025Z,48.08
2018-07-22T21:38:48.931Z,47.71
2018-07-22T21:41:19.177Z,48.21
2018-07-22T21:43:49.449Z,48.54
2018-07-22T21:46:19.833Z,50.10
2018-07-22T21:48:50.101Z,50.24
2018-07-22T21:51:20.382Z,50.24
2018-07-22T21:53:50.661Z,50.78
2018-07-22T21:56:21.405Z,50.75
2018-07-22T21:58:51.673Z,51.14
2018-07-22T22:01:21.909Z,52.43
2018-07-22T22:03:51.900Z,54.62
2018-07-22T22:06:22.194Z,52.98
2018-07-22T22:08:52.510Z,52.25
2018-07-22T22:11:22.724Z,52.34
2018-07-22T22:13:53.056Z,52.09
2018-07-22T22:16:23.406Z,52.12
2018-07-22T22:18:54.453Z,52.56
2018-07-22T22:21:24.734Z,52.95
2018-07-22T22:23:55.097Z,52.54
2018-07-22T22:26:25.390Z,53.61
2018-07-22T22:28:55.742Z,52.88
2018-07-22T22:31:25.976Z,52.51
2018-07-22T22:33:56.301Z,54.00
2018-07-22T22:36:34.510Z,53.90
2018-07-22T22:39:07.261Z,53.15
2018-07-22T22:41:37.627Z,52.56
2018-07-22T22:44:08.605Z,51.26
2018-07-22T22:46:39.540Z,51.71
2018-07-22T22:49:10.520Z,51.99
2018-07-22T22:51:47.641Z,51.85
2018-07-22T22:54:20.025Z,51.83
2018-07-22T22:56:50.332Z,52.36
2018-07-22T22:59:22.245Z,52.36
2018-07-22T23:01:56.627Z,52.07
2018-07-22T23:04:27.186Z,52.65
2018-07-22T23:06:57.395Z,52.86
2018-07-22T23:09:27.787Z,53.18
2018-07-22T23:11:58.113Z,52.07
2018-07-22T23:14:28.495Z,52.30
2018-07-22T23:16:58.786Z,51.68
2018-07-22T23:19:29.245Z,51.15
2018-07-22T23:21:59.720Z,51.21
2018-07-22T23:24:30.376Z,51.62
2018-07-22T23:27:00.646Z,52.37
2018-07-22T23:29:30.876Z,53.08
2018-07-22T23:32:01.413Z,53.47
2018-07-22T23:34:31.620Z,54.08
2018-07-22T23:37:02.217Z,54.98
2018-07-22T23:39:32.905Z,55.27
2018-07-22T23:42:03.184Z,55.03
2018-07-22T23:44:33.617Z,55.58
2018-07-22T23:47:04.217Z,55.21
2018-07-22T23:49:34.973Z,55.95
2018-07-22T23:52:05.261Z,56.87
2018-07-22T23:54:35.556Z,57.07
2018-07-22T23:57:06.218Z,57.30
2018-07-22T23:59:36.530Z,57.17
